Time;durP1;ratioP1;P1;durP2;ratioP2;P2;SDS_P1;SDS_P2;PMS_P1;PMS_P2;Temp;Humidity;BMP_temperature;BMP_pressure;BME280_temperature;BME280_humidity;BME280_pressure;Samples;Min_cycle;Max_cycle;Signal;HPM_P1;HPM_P2
2021/04/15 00:01:30;;;;;;;1.20;0.00;;;3.50;99.90;;;;;;5047607;23;20056;-76
2021/04/15 00:03:56;;;;;;;3.50;0.13;;;3.60;99.90;;;;;;5055305;23;20041;-76
2021/04/15 00:06:25;;;;;;;2.65;0.00;;;3.60;99.90;;;;;;5055925;28;20021;-75
2021/04/15 00:08:52;;;;;;;2.17;0.00;;;3.70;99.90;;;;;;5063942;23;20072;-75
2021/04/15 00:11:20;;;;;;;0.10;0.00;;;3.70;99.90;;;;;;5055575;28;20102;-76
2021/04/15 00:13:48;;;;;;;0.68;0.00;;;3.70;99.90;;;;;;5057338;28;20035;-76
2021/04/15 00:16:14;;;;;;;1.67;0.00;;;3.70;99.90;;;;;;5037756;28;20454;-76
2021/04/15 00:18:41;;;;;;;2.42;0.00;;;3.70;99.90;;;;;;5056195;28;20291;-75
2021/04/15 00:21:07;;;;;;;0.10;0.00;;;3.80;99.90;;;;;;5036867;28;20048;-75
2021/04/15 00:23:33;;;;;;;0.90;0.00;;;3.80;99.90;;;;;;5055312;28;20428;-74
2021/04/15 00:25:59;;;;;;;1.60;0.00;;;3.80;99.90;;;;;;5055217;28;20017;-75
2021/04/15 00:28:25;;;;;;;1.17;0.00;;;3.80;99.90;;;;;;5054964;28;20566;-76
2021/04/15 00:30:51;;;;;;;1.48;0.00;;;3.80;99.90;;;;;;5037064;28;20107;-77
2021/04/15 00:33:18;;;;;;;2.28;0.40;;;3.80;99.90;;;;;;5054813;28;20060;-75
2021/04/15 00:35:43;;;;;;;0.60;0.00;;;3.80;99.90;;;;;;5037042;28;20067;-75
2021/04/15 00:38:11;;;;;;;0.47;0.00;;;3.80;99.90;;;;;;5054564;28;20021;-76
2021/04/15 00:40:39;;;;;;;0.00;0.00;;;3.80;99.90;;;;;;5036862;28;20021;-76
2021/04/15 00:43:05;;;;;;;3.92;0.15;;;3.70;99.90;;;;;;5054586;28;20478;-75
2021/04/15 00:45:35;;;;;;;0.00;0.00;;;3.60;99.90;;;;;;5055171;28;20151;-75
2021/04/15 00:48:28;;;;;;;0.40;0.00;;;3.60;99.90;;;;;;5061099;23;20131;-75
2021/04/15 00:50:56;;;;;;;0.60;0.00;;;3.50;99.90;;;;;;5067738;28;20416;-75
2021/04/15 00:53:31;;;;;;;0.17;0.00;;;3.40;99.90;;;;;;5075335;28;20368;-75
2021/04/15 00:55:57;;;;;;;1.33;0.22;;;3.30;99.90;;;;;;5075384;28;20047;-75
2021/04/15 00:58:23;;;;;;;1.17;0.35;;;3.20;99.90;;;;;;5075004;28;20020;-75
2021/04/15 01:00:49;;;;;;;1.27;0.00;;;3.10;99.90;;;;;;5075010;28;20492;-76
2021/04/15 01:03:14;;;;;;;0.10;0.00;;;3.00;99.90;;;;;;5075329;28;20021;-75
2021/04/15 01:05:43;;;;;;;3.70;0.00;;;2.90;99.90;;;;;;5075122;28;20028;-76
2021/04/15 01:08:09;;;;;;;;;;;2.80;99.90;;;;;;5075763;28;20060;-77
2021/04/15 01:10:43;;;;;;;0.43;0.00;;;2.80;99.90;;;;;;5074635;28;19905;-75
2021/04/15 01:13:27;;;;;;;0.98;0.00;;;2.80;99.90;;;;;;5075359;28;20071;-75
2021/04/15 01:16:02;;;;;;;0.25;0.00;;;2.70;99.90;;;;;;5075058;28;20025;-75
2021/04/15 01:18:43;;;;;;;0.20;0.00;;;2.60;99.90;;;;;;5074884;28;20029;-75
2021/04/15 01:21:23;;;;;;;0.35;0.00;;;2.60;99.90;;;;;;5056941;28;20016;-77
2021/04/15 01:24:10;;;;;;;2.47;0.43;;;2.50;99.90;;;;;;5075265;28;20028;-77
2021/04/15 01:26:45;;;;;;;0.47;0.00;;;2.50;99.90;;;;;;5056270;28;20424;-77
2021/04/15 01:29:15;;;;;;;0.00;0.00;;;2.50;99.90;;;;;;5057622;28;20385;-77
2021/04/15 01:31:47;;;;;;;0.63;0.00;;;2.50;99.90;;;;;;5055693;28;20082;-77
2021/04/15 01:34:37;;;;;;;1.17;0.35;;;2.50;99.90;;;;;;5074808;28;20029;-77
2021/04/15 01:37:22;;;;;;;1.00;0.00;;;2.50;99.90;;;;;;5056059;28;20039;-77
2021/04/15 01:40:01;;;;;;;0.38;0.00;;;2.50;99.90;;;;;;5055752;28;20036;-77
2021/04/15 01:42:36;;;;;;;0.15;0.10;;;2.60;99.90;;;;;;5074499;28;20029;-77
2021/04/15 01:45:07;;;;;;;2.47;0.00;;;2.60;99.90;;;;;;5056537;28;20539;-78
2021/04/15 01:47:40;;;;;;;0.47;0.00;;;2.70;99.90;;;;;;5073701;28;20056;-77
2021/04/15 01:50:14;;;;;;;0.00;0.00;;;2.70;99.90;;;;;;5074210;28;20021;-77
2021/04/15 01:52:43;;;;;;;0.20;0.00;;;2.80;99.90;;;;;;5074339;28;20398;-77
2021/04/15 01:55:13;;;;;;;0.00;0.00;;;2.80;99.90;;;;;;5074048;28;20032;-75
2021/04/15 01:57:54;;;;;;;0.20;0.00;;;2.80;99.90;;;;;;5074066;28;20024;-77
2021/04/15 02:00:24;;;;;;;2.20;0.00;;;2.90;99.90;;;;;;5056279;28;20396;-77
2021/04/15 02:03:05;;;;;;;0.50;0.00;;;2.90;99.90;;;;;;5056067;28;20431;-77
2021/04/15 02:05:36;;;;;;;0.28;0.10;;;2.90;99.90;;;;;;5056180;28;20024;-77
2021/04/15 02:08:11;;;;;;;1.25;0.00;;;2.90;99.90;;;;;;5073621;28;20024;-77
2021/04/15 02:10:42;;;;;;;2.47;0.00;;;2.90;99.90;;;;;;5055551;28;20074;-77
2021/04/15 02:13:10;;;;;;;0.25;0.00;;;2.90;99.90;;;;;;5055691;28;20034;-77
2021/04/15 02:15:47;;;;;;;0.67;0.20;;;2.90;99.90;;;;;;5055676;28;20028;-76
2021/04/15 02:18:25;;;;;;;1.20;0.00;;;2.90;99.90;;;;;;5073353;28;20682;-76
2021/04/15 02:20:55;;;;;;;2.15;0.00;;;3.00;99.90;;;;;;5055640;28;20027;-77
2021/04/15 02:23:33;;;;;;;1.75;0.00;;;2.90;99.90;;;;;;5055718;28;20027;-76
2021/04/15 02:26:08;;;;;;;0.70;0.00;;;2.90;99.90;;;;;;5055687;28;20024;-77
2021/04/15 02:28:55;;;;;;;2.63;0.00;;;2.80;99.90;;;;;;5073360;28;20078;-76
2021/04/15 02:31:41;;;;;;;0.22;0.00;;;2.80;99.90;;;;;;5073673;28;20024;-76
2021/04/15 02:34:13;;;;;;;0.00;0.00;;;2.70;99.90;;;;;;5074395;28;20024;-75
2021/04/15 02:36:49;;;;;;;1.88;0.20;;;2.70;99.90;;;;;;5056756;28;20067;-77
2021/04/15 02:39:21;;;;;;;1.65;0.00;;;2.70;99.90;;;;;;5056880;23;20409;-76
2021/04/15 02:41:49;;;;;;;1.48;0.00;;;2.70;99.90;;;;;;5034079;28;20025;-75
2021/04/15 02:44:24;;;;;;;0.47;0.00;;;2.70;99.90;;;;;;5036048;28;20021;-75
2021/04/15 02:47:03;;;;;;;0.35;0.00;;;2.70;99.90;;;;;;5037944;28;20429;-76
2021/04/15 02:49:31;;;;;;;0.10;0.00;;;2.60;99.90;;;;;;5058116;23;20072;-76
2021/04/15 02:52:35;;;;;;;2.53;0.20;;;2.60;99.90;;;;;;5077813;28;20495;-75
2021/04/15 02:55:08;;;;;;;1.40;0.05;;;2.60;99.90;;;;;;5056087;28;20029;-74
2021/04/15 02:57:42;;;;;;;1.15;0.00;;;2.60;99.90;;;;;;5076886;28;20025;-74
2021/04/15 03:00:13;;;;;;;1.75;0.10;;;2.60;99.90;;;;;;5077294;28;20039;-74
2021/04/15 03:03:04;;;;;;;1.50;0.10;;;2.70;99.90;;;;;;5077376;28;20070;-74
2021/04/15 03:05:33;;;;;;;0.75;0.00;;;2.60;99.90;;;;;;5059370;28;20028;-74
2021/04/15 03:08:01;;;;;;;0.77;0.00;;;2.60;99.90;;;;;;5076682;28;20103;-74
2021/04/15 03:10:34;;;;;;;2.97;0.32;;;2.70;99.90;;;;;;5077627;28;20021;-74
2021/04/15 03:13:17;;;;;;;0.30;0.10;;;2.70;99.90;;;;;;5058720;28;20059;-74
2021/04/15 03:15:48;;;;;;;0.43;0.17;;;2.70;99.90;;;;;;5076509;28;20119;-74
2021/04/15 03:18:41;;;;;;;0.65;0.10;;;2.80;99.90;;;;;;5076648;28;20036;-74
2021/04/15 03:21:48;;;;;;;0.20;0.00;;;2.70;99.90;;;;;;5058654;28;20382;-74
2021/04/15 03:24:22;;;;;;;0.70;0.03;;;2.80;99.90;;;;;;5062792;28;20032;-74
2021/04/15 03:27:01;;;;;;;1.95;0.28;;;2.80;99.90;;;;;;5076382;28;20035;-74
2021/04/15 03:29:31;;;;;;;0.43;0.00;;;2.80;99.90;;;;;;5076835;28;20512;-75
2021/04/15 03:32:06;;;;;;;2.80;0.17;;;2.70;99.90;;;;;;5076707;28;20420;-75
2021/04/15 03:34:46;;;;;;;1.13;0.00;;;2.70;99.90;;;;;;5076366;28;20025;-75
2021/04/15 03:37:18;;;;;;;1.10;0.10;;;2.60;99.90;;;;;;5076317;28;20461;-74
2021/04/15 03:39:45;;;;;;;1.08;0.15;;;2.70;99.90;;;;;;5076214;28;20020;-75
2021/04/15 03:42:28;;;;;;;4.88;0.10;;;2.60;99.90;;;;;;5058088;28;20056;-75
2021/04/15 03:45:01;;;;;;;2.25;0.40;;;2.60;99.90;;;;;;5076310;28;20096;-75
2021/04/15 03:47:35;;;;;;;1.88;0.50;;;2.50;99.90;;;;;;5075985;28;20025;-75
2021/04/15 03:50:22;;;;;;;4.90;0.50;;;2.60;99.90;;;;;;5076030;28;20048;-74
2021/04/15 03:53:04;;;;;;;3.70;0.35;;;2.50;99.90;;;;;;5076030;28;20380;-74
2021/04/15 03:55:35;;;;;;;1.20;0.40;;;2.40;99.90;;;;;;5075005;28;20039;-75
2021/04/15 03:58:12;;;;;;;3.67;0.88;;;2.40;99.90;;;;;;5058089;28;20476;-75
2021/04/15 04:00:44;;;;;;;1.45;0.17;;;2.30;99.90;;;;;;5076197;28;20067;-75
2021/04/15 04:03:14;;;;;;;4.00;0.88;;;2.30;99.90;;;;;;5076497;28;20457;-75
2021/04/15 04:06:04;;;;;;;2.33;0.57;;;2.30;99.90;;;;;;5076363;28;20119;-75
2021/04/15 04:08:54;;;;;;;1.75;0.60;;;2.20;99.90;;;;;;5075743;28;20021;-75
2021/04/15 04:11:24;;;;;;;1.50;0.57;;;2.20;99.90;;;;;;5073901;28;20028;-76
2021/04/15 04:13:54;;;;;;;2.15;0.82;;;2.10;99.90;;;;;;5075617;28;20481;-76
2021/04/15 04:16:23;;;;;;;2.35;1.13;;;2.10;99.90;;;;;;5057681;28;20496;-76
2021/04/15 04:18:55;;;;;;;6.22;1.20;;;2.00;99.90;;;;;;5057112;28;20033;-76
2021/04/15 04:21:41;;;;;;;4.53;0.82;;;2.00;99.90;;;;;;5058330;28;20492;-77
2021/04/15 04:24:37;;;;;;;3.08;0.80;;;1.90;99.90;;;;;;5075913;28;20033;-76
2021/04/15 04:27:12;;;;;;;3.60;1.25;;;1.90;99.90;;;;;;5011862;28;20040;-76
2021/04/15 04:29:46;;;;;;;2.47;0.90;;;1.90;99.90;;;;;;5075487;28;20031;-76
2021/04/15 04:32:15;;;;;;;3.22;1.30;;;1.90;99.90;;;;;;5057398;28;20067;-76
2021/04/15 04:34:41;;;;;;;;;;;1.90;99.90;;;;;;5075775;28;20025;-76
2021/04/15 04:37:10;;;;;;;2.38;0.50;;;2.00;99.90;;;;;;5075190;28;19911;-76
2021/04/15 04:39:38;;;;;;;1.90;0.70;;;2.00;99.90;;;;;;5057001;28;20028;-76
2021/04/15 04:42:22;;;;;;;4.13;0.93;;;2.00;99.90;;;;;;5057935;23;20565;-75
2021/04/15 04:44:52;;;;;;;3.58;0.88;;;2.10;99.90;;;;;;5034808;28;20478;-76
2021/04/15 04:47:36;;;;;;;7.70;1.92;;;2.20;99.90;;;;;;5035523;28;20017;-75
2021/04/15 04:50:33;;;;;;;2.38;0.98;;;2.20;99.90;;;;;;5035577;28;20033;-75
2021/04/15 04:53:09;;;;;;;3.43;1.20;;;2.20;99.90;;;;;;5034550;28;20048;-74
2021/04/15 04:55:59;;;;;;;7.32;2.03;;;2.30;99.90;;;;;;5034818;28;20104;-74
2021/04/15 04:58:25;;;;;;;6.13;1.95;;;2.30;99.90;;;;;;5034893;28;20116;-74
2021/04/15 05:00:52;;;;;;;4.38;1.75;;;2.30;99.90;;;;;;5034473;28;20116;-74
2021/04/15 05:03:20;;;;;;;9.10;1.92;;;2.20;99.90;;;;;;5033397;28;20116;-74
2021/04/15 05:05:46;;;;;;;4.00;1.80;;;2.20;99.90;;;;;;5034470;28;20017;-74
2021/04/15 05:08:26;;;;;;;5.03;1.83;;;2.20;99.90;;;;;;5034829;28;20036;-74
2021/04/15 05:10:53;;;;;;;5.07;1.92;;;2.10;99.90;;;;;;5033250;28;20475;-75
2021/04/15 05:13:24;;;;;;;3.20;1.55;;;2.10;99.90;;;;;;5035087;28;20025;-74
2021/04/15 05:15:50;;;;;;;6.50;1.77;;;2.10;99.90;;;;;;5033154;28;20033;-74
2021/04/15 05:18:19;;;;;;;5.75;1.92;;;2.00;99.90;;;;;;5034189;28;20079;-75
2021/04/15 05:20:45;;;;;;;5.55;2.13;;;1.90;99.90;;;;;;5034241;28;20071;-74
2021/04/15 05:23:25;;;;;;;7.57;2.33;;;1.90;99.90;;;;;;5033060;28;20372;-75
2021/04/15 05:26:23;;;;;;;4.72;1.85;;;1.90;99.90;;;;;;5035068;28;20052;-76
2021/04/15 05:28:51;;;;;;;6.47;2.17;;;2.00;99.90;;;;;;5034615;28;20167;-75
2021/04/15 05:31:20;;;;;;;4.90;2.08;;;2.00;99.90;;;;;;5033520;28;20022;-75
2021/04/15 05:33:46;;;;;;;8.05;2.17;;;2.10;99.90;;;;;;5034912;28;20467;-74
2021/04/15 05:36:19;;;;;;;9.32;2.70;;;2.10;99.90;;;;;;5033198;28;20045;-77
2021/04/15 05:38:51;;;;;;;8.43;2.88;;;2.10;99.90;;;;;;5032869;28;20032;-74
2021/04/15 05:41:28;;;;;;;8.48;3.08;;;2.20;99.90;;;;;;5032875;28;20017;-75
2021/04/15 05:44:04;;;;;;;6.53;2.10;;;2.40;99.90;;;;;;5034182;28;20117;-75
2021/04/15 05:46:46;;;;;;;8.13;3.13;;;2.40;99.90;;;;;;5068759;23;20031;-76
2021/04/15 05:49:23;;;;;;;7.45;2.65;;;2.50;99.90;;;;;;5016296;28;20034;-73
2021/04/15 05:51:57;;;;;;;5.25;2.85;;;2.50;99.90;;;;;;5034056;28;20028;-76
2021/04/15 05:54:24;;;;;;;6.35;3.35;;;2.60;99.90;;;;;;5034228;28;20463;-74
2021/04/15 05:59:46;;;;;;;11.18;3.88;;;2.70;99.90;;;;;;5070385;28;20398;-75
2021/04/15 06:02:17;;;;;;;7.55;3.20;;;2.80;99.90;;;;;;5073889;28;20397;-74
2021/04/15 06:04:52;;;;;;;7.03;3.40;;;3.00;99.90;;;;;;5073626;28;20029;-74
2021/04/15 06:07:21;;;;;;;7.07;3.28;;;3.30;99.90;;;;;;5073689;28;20078;-75
2021/04/15 06:09:48;;;;;;;5.40;2.92;;;3.50;99.90;;;;;;5074535;28;20021;-77
2021/04/15 06:12:23;;;;;;;9.80;3.22;;;3.70;99.90;;;;;;5056165;28;20028;-76
2021/04/15 06:14:57;;;;;;;10.43;3.15;;;3.90;99.90;;;;;;5073598;28;20396;-77
2021/04/15 06:17:33;;;;;;;5.97;2.10;;;4.10;99.90;;;;;;5067726;23;20064;-76
2021/04/15 06:20:02;;;;;;;5.90;3.30;;;4.20;99.90;;;;;;5060333;28;20024;-76
2021/04/15 06:22:30;;;;;;;5.90;2.20;;;4.40;99.90;;;;;;5075819;23;20052;-76
2021/04/15 06:28:22;;;;;;;6.75;1.67;;;4.50;99.90;;;;;;5021996;28;20429;-77
2021/04/15 06:31:20;;;;;;;6.57;1.85;;;4.70;99.90;;;;;;5080512;23;20116;-77
2021/04/15 06:33:46;;;;;;;4.75;1.27;;;4.70;99.90;;;;;;5032599;28;20029;-76
2021/04/15 06:36:39;;;;;;;2.05;1.08;;;4.80;99.90;;;;;;5037977;28;20419;-77
2021/04/15 06:39:14;;;;;;;3.40;1.27;;;4.90;99.90;;;;;;5017360;28;20132;-79
2021/04/15 06:41:52;;;;;;;5.47;1.20;;;5.00;99.90;;;;;;5016615;28;20453;-77
2021/04/15 06:44:46;;;;;;;11.30;1.23;;;5.00;99.90;;;;;;5017966;28;20498;-78
2021/04/15 06:47:31;;;;;;;4.00;0.93;;;5.10;99.90;;;;;;5016871;28;20115;-79
2021/04/15 06:50:09;;;;;;;2.15;0.55;;;5.20;99.90;;;;;;5017680;28;20069;-79
2021/04/15 06:53:16;;;;;;;5.43;0.88;;;5.20;99.90;;;;;;5016199;28;20386;-78
2021/04/15 06:56:10;;;;;;;3.38;1.10;;;5.20;99.90;;;;;;5012934;28;20045;-76
2021/04/15 06:58:49;;;;;;;4.55;0.57;;;5.30;99.90;;;;;;5017663;28;20510;-77
2021/04/15 07:01:18;;;;;;;;;;;5.30;99.90;;;;;;5016789;28;20109;-80
2021/04/15 07:03:59;;;;;;;4.90;1.00;;;5.40;99.90;;;;;;5016129;28;20011;-77
2021/04/15 07:06:37;;;;;;;6.70;1.02;;;5.50;99.90;;;;;;5015979;28;20398;-76
2021/04/15 07:09:26;;;;;;;5.07;0.50;;;5.50;99.90;;;;;;5016156;28;20026;-77
2021/04/15 07:12:09;;;;;;;5.40;0.40;;;5.70;99.90;;;;;;5017557;28;20053;-77
2021/04/15 07:14:46;;;;;;;3.10;0.47;;;5.90;99.90;;;;;;5017434;28;20022;-74
2021/04/15 07:17:27;;;;;;;2.70;0.40;;;6.10;99.90;;;;;;5017097;28;20065;-78
2021/04/15 07:20:27;;;;;;;5.32;0.63;;;6.20;99.90;;;;;;5017594;28;20058;-76
2021/04/15 07:23:15;;;;;;;1.45;0.20;;;6.20;99.90;;;;;;5017057;28;20425;-76
2021/04/15 07:26:05;;;;;;;2.93;0.77;;;6.30;99.90;;;;;;5017399;28;20025;-76
2021/04/15 07:29:14;;;;;;;1.48;0.20;;;6.40;99.90;;;;;;5016521;28;20038;-76
2021/04/15 07:31:55;;;;;;;3.92;0.28;;;6.50;99.90;;;;;;5015441;28;20203;-76
2021/04/15 07:35:04;;;;;;;3.60;0.20;;;6.50;99.90;;;;;;5013065;28;20029;-75
2021/04/15 07:38:07;;;;;;;2.40;0.10;;;6.50;99.90;;;;;;5016727;28;20120;-74
2021/04/15 07:40:38;;;;;;;1.67;0.00;;;6.70;99.90;;;;;;5015397;28;20030;-76
2021/04/15 07:43:23;;;;;;;1.42;0.00;;;6.70;99.90;;;;;;5016460;28;20033;-75
2021/04/15 07:46:26;;;;;;;1.75;0.10;;;6.60;99.90;;;;;;5016598;28;20034;-75
2021/04/15 07:49:13;;;;;;;3.55;0.08;;;6.60;99.90;;;;;;5016761;28;20099;-74
2021/04/15 07:52:26;;;;;;;1.42;0.32;;;6.60;99.90;;;;;;5015527;28;20072;-78
2021/04/15 07:55:09;;;;;;;1.55;0.00;;;6.60;99.90;;;;;;4970966;28;20041;-76
2021/04/15 07:57:38;;;;;;;0.35;0.00;;;6.60;99.90;;;;;;5016728;28;20485;-76
2021/04/15 08:00:05;;;;;;;1.10;0.05;;;6.60;99.90;;;;;;5016168;28;20030;-77
2021/04/15 08:03:01;;;;;;;2.63;0.00;;;6.80;99.90;;;;;;5015194;28;20398;-75
2021/04/15 08:05:44;;;;;;;0.55;0.10;;;7.10;99.90;;;;;;5016600;28;20022;-77
2021/04/15 08:08:34;;;;;;;0.80;0.10;;;7.40;99.90;;;;;;5014986;28;20026;-75
2021/04/15 08:11:15;;;;;;;2.47;0.30;;;7.60;99.90;;;;;;5016294;28;20022;-74
2021/04/15 08:14:28;;;;;;;0.75;0.20;;;7.60;99.90;;;;;;5075475;23;20139;-76
2021/04/15 08:17:07;;;;;;;0.85;0.20;;;7.50;99.90;;;;;;5018259;28;20040;-74
2021/04/15 08:19:32;;;;;;;1.02;0.10;;;7.40;99.90;;;;;;5078347;23;20041;-76
2021/04/15 08:22:23;;;;;;;1.70;0.08;;;7.40;99.90;;;;;;5058645;28;20027;-75
2021/04/15 08:25:18;;;;;;;3.03;0.20;;;7.30;99.90;;;;;;5076001;28;20099;-75
2021/04/15 08:28:01;;;;;;;1.33;0.20;;;7.10;99.90;;;;;;5076054;28;20115;-77
2021/04/15 08:30:53;;;;;;;1.45;0.10;;;6.90;99.90;;;;;;5058094;28;20017;-77
2021/04/15 08:34:08;;;;;;;0.82;0.22;;;6.80;99.90;;;;;;5059059;28;20024;-78
2021/04/15 08:36:59;;;;;;;2.25;0.60;;;6.60;99.90;;;;;;5058917;28;20020;-78
2021/04/15 08:42:50;;;;;;;3.60;0.60;;;6.40;99.90;;;;;;5054154;28;20083;-78
2021/04/15 08:45:38;;;;;;;2.30;0.60;;;6.40;99.90;;;;;;5056366;28;20384;-77
2021/04/15 08:48:36;;;;;;;0.93;0.28;;;6.50;99.90;;;;;;5038134;28;20021;-76
2021/04/15 08:51:29;;;;;;;1.73;0.32;;;6.90;99.90;;;;;;5038817;28;20544;-76
2021/04/15 08:54:14;;;;;;;2.10;0.10;;;7.40;99.90;;;;;;5056033;23;20098;-77
2021/04/15 08:57:02;;;;;;;1.75;0.10;;;7.80;99.90;;;;;;5057522;28;20059;-75
2021/04/15 09:02:15;;;;;;;0.68;0.00;;;7.90;99.90;;;;;;5075055;28;20044;-76
2021/04/15 09:04:59;;;;;;;2.13;0.17;;;7.60;99.90;;;;;;5058039;28;20028;-76
2021/04/15 09:07:47;;;;;;;2.67;0.30;;;7.40;99.90;;;;;;5087897;22;20024;-75
2021/04/15 09:10:43;;;;;;;0.40;0.10;;;7.40;99.90;;;;;;5055686;28;20128;-76
2021/04/15 09:13:19;;;;;;;0.98;0.00;;;7.30;99.90;;;;;;5033184;28;20476;-78
2021/04/15 09:16:08;;;;;;;0.40;0.00;;;7.40;99.90;;;;;;5075535;28;20027;-76
2021/04/15 09:18:56;;;;;;;0.20;0.00;;;7.40;99.90;;;;;;5075615;28;20031;-76
2021/04/15 09:21:36;;;;;;;0.82;0.20;;;7.30;99.90;;;;;;5057364;28;20059;-78
2021/04/15 09:24:31;;;;;;;0.47;0.00;;;7.30;99.30;;;;;;5075187;28;20032;-77
2021/04/15 09:27:39;;;;;;;0.32;0.00;;;7.30;99.90;;;;;;5074809;28;20021;-78
2021/04/15 09:30:18;;;;;;;0.50;0.00;;;7.40;99.90;;;;;;5075512;28;20024;-77
2021/04/15 09:33:05;;;;;;;1.92;0.20;;;7.60;99.90;;;;;;5056827;28;20028;-78
2021/04/15 09:35:47;;;;;;;0.43;0.10;;;7.90;99.90;;;;;;5056861;28;20505;-78
2021/04/15 09:38:43;;;;;;;0.90;0.15;;;8.30;99.90;;;;;;5056261;28;20024;-78
2021/04/15 09:41:47;;;;;;;0.20;0.00;;;8.70;97.00;;;;;;5051269;23;20128;-79
2021/04/15 09:44:32;;;;;;;0.30;0.00;;;9.00;95.30;;;;;;5035681;28;20021;-78
2021/04/15 09:47:20;;;;;;;0.35;0.00;;;9.30;95.50;;;;;;5029063;28;20030;-78
2021/04/15 09:50:10;;;;;;;0.40;0.13;;;9.50;92.10;;;;;;5015046;28;20072;-76
2021/04/15 09:52:51;;;;;;;0.10;0.00;;;9.60;85.50;;;;;;5014046;28;20526;-79
2021/04/15 09:55:41;;;;;;;1.20;0.00;;;9.60;87.80;;;;;;5014498;28;20030;-77
2021/04/15 09:58:23;;;;;;;0.22;0.00;;;9.60;85.00;;;;;;5040917;23;20045;-78
2021/04/15 10:00:51;;;;;;;1.83;0.00;;;9.60;83.30;;;;;;5054270;28;20021;-77
2021/04/15 10:03:42;;;;;;;0.28;0.00;;;9.50;84.20;;;;;;5054532;28;20028;-79
2021/04/15 10:06:24;;;;;;;1.27;0.00;;;9.30;82.40;;;;;;5036850;28;20028;-78
2021/04/15 10:08:56;;;;;;;0.17;0.10;;;9.10;82.10;;;;;;5054753;28;20032;-78
2021/04/15 10:11:53;;;;;;;0.50;0.00;;;9.00;83.00;;;;;;5055544;28;20389;-78
2021/04/15 10:14:30;;;;;;;4.15;0.10;;;9.00;85.30;;;;;;5036764;28;20040;-78
2021/04/15 10:17:21;;;;;;;2.47;0.00;;;9.10;83.40;;;;;;5037376;28;20029;-78
2021/04/15 10:20:11;;;;;;;1.40;0.10;;;9.20;83.10;;;;;;5054587;28;20033;-78
2021/04/15 10:22:49;;;;;;;1.75;0.00;;;9.30;83.00;;;;;;5055190;28;20083;-78
2021/04/15 10:25:19;;;;;;;1.13;0.10;;;9.30;80.40;;;;;;5055357;28;20469;-78
2021/04/15 10:28:10;;;;;;;2.05;0.10;;;9.40;84.50;;;;;;5036371;28;20024;-78
2021/04/15 10:31:13;;;;;;;0.20;0.00;;;9.50;82.20;;;;;;5054717;28;20017;-78
2021/04/15 10:34:02;;;;;;;1.65;0.00;;;9.90;79.40;;;;;;5037052;28;20109;-77
2021/04/15 10:36:51;;;;;;;3.60;0.57;;;10.30;75.70;;;;;;5055395;28;20056;-77
2021/04/15 10:39:58;;;;;;;2.28;0.08;;;10.30;74.40;;;;;;5066969;23;20362;-78
2021/04/15 10:42:58;;;;;;;0.10;0.00;;;10.40;73.30;;;;;;5053993;28;20087;-77
2021/04/15 10:45:32;;;;;;;1.55;0.13;;;10.50;72.10;;;;;;5053876;28;20470;-76
2021/04/15 10:48:33;;;;;;;0.68;0.28;;;10.50;69.20;;;;;;5054438;28;20022;-76
2021/04/15 10:51:06;;;;;;;0.22;0.00;;;10.50;73.20;;;;;;5035748;28;20033;-77
2021/04/15 10:53:51;;;;;;;0.00;0.00;;;10.60;73.20;;;;;;5035452;28;20016;-77
2021/04/15 10:56:23;;;;;;;0.10;0.00;;;10.60;70.50;;;;;;5053700;28;20025;-78
2021/04/15 10:59:08;;;;;;;1.67;0.00;;;11.00;72.90;;;;;;5035924;28;20559;-77
2021/04/15 11:01:41;;;;;;;0.63;0.00;;;11.30;71.80;;;;;;5035424;28;20053;-77
2021/04/15 11:04:10;;;;;;;0.30;0.00;;;11.70;71.00;;;;;;5054131;28;20055;-77
2021/04/15 11:06:46;;;;;;;0.00;0.00;;;12.00;67.80;;;;;;5039938;28;20036;-78
2021/04/15 11:09:33;;;;;;;0.88;0.00;;;12.40;67.40;;;;;;5040512;28;20441;-78
2021/04/15 11:12:04;;;;;;;0.35;0.00;;;12.70;64.80;;;;;;5041173;28;20087;-78
2021/04/15 11:14:37;;;;;;;0.00;0.00;;;13.20;65.50;;;;;;5040980;28;20086;-79
2021/04/15 11:17:15;;;;;;;0.60;0.15;;;13.50;60.00;;;;;;5040138;28;20075;-77
2021/04/15 11:19:41;;;;;;;0.70;0.00;;;13.20;58.40;;;;;;5057246;28;20382;-77
2021/04/15 11:22:18;;;;;;;0.10;0.00;;;12.80;58.30;;;;;;5057482;28;20021;-77
2021/04/15 11:24:44;;;;;;;0.20;0.00;;;12.40;59.70;;;;;;5057169;28;20505;-78
2021/04/15 11:27:11;;;;;;;0.00;0.00;;;11.90;60.60;;;;;;5057664;28;20017;-77
2021/04/15 11:29:43;;;;;;;0.35;0.00;;;11.60;61.20;;;;;;5039065;28;20065;-76
2021/04/15 11:32:43;;;;;;;0.65;0.00;;;11.30;63.40;;;;;;5057742;28;20048;-77
2021/04/15 11:35:16;;;;;;;0.38;0.00;;;11.30;64.40;;;;;;5039407;28;20041;-76
2021/04/15 11:37:44;;;;;;;0.00;0.00;;;11.20;63.50;;;;;;5038963;28;20025;-77
2021/04/15 11:40:16;;;;;;;0.55;0.00;;;11.10;61.90;;;;;;5058195;28;20013;-75
2021/04/15 11:42:43;;;;;;;0.43;0.00;;;11.10;61.30;;;;;;5040106;28;20502;-77
2021/04/15 11:45:12;;;;;;;1.02;0.08;;;11.00;61.60;;;;;;5057502;28;20070;-79
2021/04/15 11:47:37;;;;;;;;;;;11.00;61.80;;;;;;5057365;28;20071;-80
2021/04/15 11:50:22;;;;;;;0.47;0.00;;;10.90;61.80;;;;;;5038688;28;20371;-76
2021/04/15 11:52:52;;;;;;;0.05;0.00;;;11.00;62.60;;;;;;5057073;28;20498;-75
2021/04/15 11:55:35;;;;;;;0.63;0.10;;;11.30;64.80;;;;;;5040339;28;20112;-78
2021/04/15 11:58:04;;;;;;;0.20;0.00;;;11.70;62.60;;;;;;5064337;23;20040;-75
2021/04/15 12:00:32;;;;;;;;;;;11.90;61.70;;;;;;5059538;28;20396;-78
2021/04/15 12:02:57;;;;;;;0.10;0.00;;;11.80;62.50;;;;;;5058542;28;19927;-76
2021/04/15 12:05:30;;;;;;;0.10;0.00;;;11.80;61.80;;;;;;5058237;28;20024;-75
2021/04/15 12:08:05;;;;;;;0.95;0.00;;;11.70;59.40;;;;;;5059197;28;20579;-77
2021/04/15 12:10:36;;;;;;;0.80;0.00;;;11.40;61.00;;;;;;5076924;28;20025;-76
2021/04/15 12:13:06;;;;;;;1.75;0.00;;;11.30;61.20;;;;;;5058390;28;20052;-76
2021/04/15 12:15:41;;;;;;;0.20;0.10;;;11.10;60.80;;;;;;5057835;28;20077;-76
2021/04/15 12:18:21;;;;;;;0.90;0.00;;;11.00;62.30;;;;;;5077367;28;20017;-77
2021/04/15 12:21:03;;;;;;;0.32;0.10;;;10.90;61.90;;;;;;5058576;28;20020;-77
2021/04/15 12:23:34;;;;;;;1.02;0.30;;;11.00;64.30;;;;;;5058510;28;20024;-76
2021/04/15 12:26:09;;;;;;;0.75;0.00;;;11.10;63.10;;;;;;5058020;28;20024;-76
2021/04/15 12:29:07;;;;;;;2.33;0.10;;;11.20;63.80;;;;;;5075843;28;20088;-76
2021/04/15 12:31:47;;;;;;;0.35;0.10;;;11.30;60.00;;;;;;5076056;28;20070;-77
2021/04/15 12:34:40;;;;;;;0.82;0.10;;;11.30;58.90;;;;;;5075933;28;20028;-76
2021/04/15 12:37:10;;;;;;;5.88;1.00;;;11.20;60.40;;;;;;5058336;28;20024;-76
2021/04/15 12:39:48;;;;;;;1.27;0.00;;;11.10;58.60;;;;;;5057818;28;20124;-76
2021/04/15 12:42:17;;;;;;;1.05;0.00;;;11.10;58.20;;;;;;5058270;28;20107;-76
2021/04/15 12:44:43;;;;;;;0.10;0.00;;;11.10;60.30;;;;;;5057788;28;20519;-75
2021/04/15 12:47:09;;;;;;;0.90;0.00;;;11.30;60.40;;;;;;5075986;28;20021;-77
2021/04/15 12:49:36;;;;;;;0.73;0.00;;;11.30;59.40;;;;;;5057635;28;20031;-77
2021/04/15 12:52:12;;;;;;;0.10;0.00;;;11.40;59.20;;;;;;5057736;28;20107;-80
2021/04/15 12:54:40;;;;;;;1.23;0.00;;;11.40;59.90;;;;;;5076016;28;20025;-77
2021/04/15 12:57:11;;;;;;;0.00;0.00;;;11.30;60.70;;;;;;5076303;23;20052;-75
2021/04/15 12:59:49;;;;;;;0.52;0.00;;;11.30;60.40;;;;;;5035814;28;20026;-76
2021/04/15 13:02:36;;;;;;;8.75;0.10;;;11.20;60.40;;;;;;5035141;28;20060;-75
2021/04/15 13:05:06;;;;;;;2.40;0.10;;;11.10;60.00;;;;;;5033762;28;20022;-76
2021/04/15 13:07:38;;;;;;;0.30;0.00;;;11.10;60.00;;;;;;5034090;28;20025;-77
2021/04/15 13:10:26;;;;;;;1.70;0.00;;;11.10;60.20;;;;;;5033926;28;20024;-76
2021/04/15 13:12:55;;;;;;;1.05;0.00;;;11.10;60.50;;;;;;5054157;23;20048;-78
2021/04/15 13:15:23;;;;;;;2.28;0.00;;;11.20;59.40;;;;;;5037588;28;20503;-75
2021/04/15 13:17:51;;;;;;;0.57;0.00;;;11.30;59.50;;;;;;5036988;28;20087;-77
2021/04/15 13:20:23;;;;;;;0.28;0.00;;;12.00;60.20;;;;;;5037338;28;20114;-77
2021/04/15 13:23:16;;;;;;;0.65;0.00;;;12.60;54.40;;;;;;5066771;22;20178;-75
2021/04/15 13:25:51;;;;;;;1.65;0.15;;;15.40;54.20;;;;;;5055454;28;20100;-77
2021/04/15 13:28:19;;;;;;;1.55;0.00;;;13.00;51.60;;;;;;5037602;28;20028;-77
2021/04/15 13:30:56;;;;;;;0.95;0.00;;;13.00;48.80;;;;;;5037223;28;20033;-80
2021/04/15 13:33:30;;;;;;;0.17;0.00;;;13.10;51.70;;;;;;5036792;28;20024;-76
2021/04/15 13:35:59;;;;;;;0.22;0.00;;;13.60;52.10;;;;;;5055345;28;20033;-78
2021/04/15 13:38:46;;;;;;;0.10;0.00;;;13.90;50.30;;;;;;5036764;28;20031;-76
2021/04/15 13:41:32;;;;;;;0.50;0.08;;;14.20;50.10;;;;;;5054534;28;20037;-78
2021/04/15 13:43:59;;;;;;;0.70;0.00;;;14.40;47.20;;;;;;5054025;28;20427;-77
2021/04/15 13:46:24;;;;;;;1.60;0.00;;;15.00;50.90;;;;;;5055938;28;20021;-77
2021/04/15 13:49:00;;;;;;;0.88;0.30;;;15.40;48.10;;;;;;5054701;28;20500;-80
2021/04/15 13:51:28;;;;;;;0.45;0.00;;;15.40;45.70;;;;;;5037427;28;20025;-76
2021/04/15 13:54:30;;;;;;;0.08;0.00;;;15.20;47.60;;;;;;5055221;28;20036;-76
2021/04/15 13:57:02;;;;;;;2.05;0.20;;;14.70;47.00;;;;;;5054851;28;20033;-75
2021/04/15 13:59:35;;;;;;;0.30;0.10;;;14.50;45.70;;;;;;5069026;23;20163;-77
2021/04/15 14:02:16;;;;;;;0.32;0.00;;;14.20;47.50;;;;;;5074855;28;20021;-79
2021/04/15 14:07:34;;;;;;;2.17;0.10;;;13.70;46.90;;;;;;5075101;28;20035;-75